sensor_id;sensor_type;location;lat;lon;timestamp;pressure;altitude;pressure_sealevel;temperature;humidity
59443;BME280;45247;47.466;19.004;2023-01-28T00:01:16;99936.44;;;0.50;100.00
59443;BME280;45247;47.466;19.004;2023-01-28T00:03:48;99941.63;;;0.52;100.00
59443;BME280;45247;47.466;19.004;2023-01-28T00:06:18;99939.91;;;0.49;100.00
59443;BME280;45247;47.466;19.004;2023-01-28T00:08:47;99943.41;;;0.46;100.00
59443;BME280;45247;47.466;19.004;2023-01-28T00:11:15;99939.16;;;0.42;100.00
59443;BME280;45247;47.466;19.004;2023-01-28T00:13:43;99949.38;;;0.53;100.00
59443;BME280;45247;47.466;19.004;2023-01-28T00:16:11;99944.25;;;0.48;100.00
59443;BME280;45247;47.466;19.004;2023-01-28T00:18:39;99938.16;;;0.49;100.00
59443;BME280;45247;47.466;19.004;2023-01-28T00:21:10;99940.81;;;0.46;100.00
59443;BME280;45247;47.466;19.004;2023-01-28T00:23:41;99942.63;;;0.43;100.00
59443;BME280;45247;47.466;19.004;2023-01-28T00:26:12;99952.97;;;0.44;100.00
59443;BME280;45247;47.466;19.004;2023-01-28T00:28:42;99939.91;;;0.49;100.00
59443;BME280;45247;47.466;19.004;2023-01-28T00:31:14;99946.00;;;0.46;100.00
59443;BME280;45247;47.466;19.004;2023-01-28T00:33:43;99942.47;;;0.50;100.00
59443;BME280;45247;47.466;19.004;2023-01-28T00:36:13;99950.22;;;0.54;100.00
59443;BME280;45247;47.466;19.004;2023-01-28T00:38:47;99947.66;;;0.50;100.00
59443;BME280;45247;47.466;19.004;2023-01-28T00:41:17;99947.66;;;0.50;100.00
59443;BME280;45247;47.466;19.004;2023-01-28T00:43:48;99951.13;;;0.51;100.00
59443;BME280;45247;47.466;19.004;2023-01-28T00:46:17;99954.59;;;0.52;100.00
59443;BME280;45247;47.466;19.004;2023-01-28T00:48:45;99963.22;;;0.54;100.00
59443;BME280;45247;47.466;19.004;2023-01-28T00:51:15;99961.53;;;0.49;100.00
59443;BME280;45247;47.466;19.004;2023-01-28T00:53:45;99958.06;;;0.50;100.00
59443;BME280;45247;47.466;19.004;2023-01-28T00:56:15;99965.00;;;0.52;100.00
59443;BME280;45247;47.466;19.004;2023-01-28T00:58:45;99972.78;;;0.52;100.00
59443;BME280;45247;47.466;19.004;2023-01-28T01:01:14;99964.09;;;0.51;100.00
59443;BME280;45247;47.466;19.004;2023-01-28T01:03:43;99963.22;;;0.54;100.00
59443;BME280;45247;47.466;19.004;2023-01-28T01:06:13;99962.31;;;0.55;100.00
59443;BME280;45247;47.466;19.004;2023-01-28T01:08:41;99964.03;;;0.56;100.00
59443;BME280;45247;47.466;19.004;2023-01-28T01:11:17;99955.38;;;0.55;100.00
59443;BME280;45247;47.466;19.004;2023-01-28T01:13:49;99956.22;;;0.56;100.00
59443;BME280;45247;47.466;19.004;2023-01-28T01:16:18;99957.97;;;0.57;100.00
59443;BME280;45247;47.466;19.004;2023-01-28T01:18:46;99954.59;;;0.52;100.00
59443;BME280;45247;47.466;19.004;2023-01-28T01:21:16;99963.25;;;0.50;100.00
59443;BME280;45247;47.466;19.004;2023-01-28T01:23:45;99958.06;;;0.50;100.00
59443;BME280;45247;47.466;19.004;2023-01-28T01:26:14;99965.00;;;0.52;100.00
59443;BME280;45247;47.466;19.004;2023-01-28T01:28:44;99960.66;;;0.52;100.00
59443;BME280;45247;47.466;19.004;2023-01-28T01:31:13;99965.00;;;0.52;100.00
59443;BME280;45247;47.466;19.004;2023-01-28T01:33:42;99966.75;;;0.49;100.00
59443;BME280;45247;47.466;19.004;2023-01-28T01:36:12;99965.03;;;0.48;100.00
59443;BME280;45247;47.466;19.004;2023-01-28T01:38:41;99958.09;;;0.49;100.00
59443;BME280;45247;47.466;19.004;2023-01-28T01:41:20;99956.41;;;0.46;100.00
59443;BME280;45247;47.466;19.004;2023-01-28T01:43:53;99966.78;;;0.46;100.00
59443;BME280;45247;47.466;19.004;2023-01-28T01:46:24;99965.06;;;0.45;100.00
59443;BME280;45247;47.466;19.004;2023-01-28T01:48:54;99959.03;;;0.45;100.00
59443;BME280;45247;47.466;19.004;2023-01-28T01:51:25;99961.59;;;0.46;100.00
59443;BME280;45247;47.466;19.004;2023-01-28T01:53:55;99974.63;;;0.45;100.00
59443;BME280;45247;47.466;19.004;2023-01-28T01:56:29;99968.53;;;0.46;100.00
59443;BME280;45247;47.466;19.004;2023-01-28T01:59:01;99972.06;;;0.43;100.00
59443;BME280;45247;47.466;19.004;2023-01-28T02:01:30;99969.47;;;0.43;100.00
59443;BME280;45247;47.466;19.004;2023-01-28T02:04:03;99978.03;;;0.47;100.00
59443;BME280;45247;47.466;19.004;2023-01-28T02:06:33;99971.13;;;0.46;100.00
59443;BME280;45247;47.466;19.004;2023-01-28T02:09:06;99971.22;;;0.41;100.00
59443;BME280;45247;47.466;19.004;2023-01-28T02:11:35;99976.41;;;0.43;100.00
59443;BME280;45247;47.466;19.004;2023-01-28T02:14:05;99972.09;;;0.40;100.00
59443;BME280;45247;47.466;19.004;2023-01-28T02:16:33;99975.59;;;0.39;100.00
59443;BME280;45247;47.466;19.004;2023-01-28T02:19:02;99974.78;;;0.36;100.00
59443;BME280;45247;47.466;19.004;2023-01-28T02:21:56;99978.25;;;0.35;100.00
59443;BME280;45247;47.466;19.004;2023-01-28T02:27:33;99973.91;;;0.35;100.00
59443;BME280;45247;47.466;19.004;2023-01-28T02:30:09;99970.47;;;0.33;100.00
59443;BME280;45247;47.466;19.004;2023-01-28T02:32:44;99959.25;;;0.33;100.00
59443;BME280;45247;47.466;19.004;2023-01-28T02:35:17;99951.53;;;0.28;100.00
59443;BME280;45247;47.466;19.004;2023-01-28T02:37:52;99964.56;;;0.25;100.00
59443;BME280;45247;47.466;19.004;2023-01-28T02:40:26;99958.75;;;0.11;100.00
59443;BME280;45247;47.466;19.004;2023-01-28T02:42:55;99964.03;;;0.05;100.00
59443;BME280;45247;47.466;19.004;2023-01-28T02:45:29;99953.75;;;-0.02;100.00
59443;BME280;45247;47.466;19.004;2023-01-28T02:48:21;99957.28;;;-0.09;100.00
59443;BME280;45247;47.466;19.004;2023-01-28T02:50:57;99959.88;;;-0.09;100.00
59443;BME280;45247;47.466;19.004;2023-01-28T02:53:33;99964.22;;;-0.08;100.00
59443;BME280;45247;47.466;19.004;2023-01-28T02:56:17;99966.88;;;-0.12;100.00
59443;BME280;45247;47.466;19.004;2023-01-28T02:58:53;99967.78;;;-0.15;100.00
59443;BME280;45247;47.466;19.004;2023-01-28T03:01:30;99960.88;;;-0.16;100.00
59443;BME280;45247;47.466;19.004;2023-01-28T03:04:03;99962.63;;;-0.16;100.00
59443;BME280;45247;47.466;19.004;2023-01-28T03:06:38;99955.66;;;-0.13;100.00
59443;BME280;45247;47.466;19.004;2023-01-28T03:09:07;99963.44;;;-0.13;100.00
59443;BME280;45247;47.466;19.004;2023-01-28T03:11:53;99953.91;;;-0.12;100.00
59443;BME280;45247;47.466;19.004;2023-01-28T03:14:40;99956.44;;;-0.09;100.00
59443;BME280;45247;47.466;19.004;2023-01-28T03:17:32;99959.84;;;-0.04;100.00
59443;BME280;45247;47.466;19.004;2023-01-28T03:20:24;99965.88;;;-0.04;100.00
59443;BME280;45247;47.466;19.004;2023-01-28T03:23:15;99963.22;;;-0.01;100.00
59443;BME280;45247;47.466;19.004;2023-01-28T03:26:06;99960.63;;;-0.01;100.00
59443;BME280;45247;47.466;19.004;2023-01-28T03:28:53;99960.56;;;0.06;100.00
59443;BME280;45247;47.466;19.004;2023-01-28T03:31:42;99963.16;;;0.04;100.00
59443;BME280;45247;47.466;19.004;2023-01-28T03:34:29;99967.50;;;0.05;100.00
59443;BME280;45247;47.466;19.004;2023-01-28T03:37:15;99957.06;;;0.07;100.00
59443;BME280;45247;47.466;19.004;2023-01-28T03:39:44;99967.41;;;0.10;100.00
59443;BME280;45247;47.466;19.004;2023-01-28T03:42:13;99960.41;;;0.15;100.00
59443;BME280;45247;47.466;19.004;2023-01-28T03:44:44;99965.59;;;0.15;100.00
59443;BME280;45247;47.466;19.004;2023-01-28T03:47:24;99968.97;;;0.20;100.00
59443;BME280;45247;47.466;19.004;2023-01-28T03:49:55;99974.16;;;0.20;100.00
59443;BME280;45247;47.466;19.004;2023-01-28T03:52:27;99977.53;;;0.25;100.00
59443;BME280;45247;47.466;19.004;2023-01-28T03:54:55;99976.63;;;0.28;100.00
59443;BME280;45247;47.466;19.004;2023-01-28T03:57:26;99973.16;;;0.30;100.00
59443;BME280;45247;47.466;19.004;2023-01-28T03:59:57;99980.13;;;0.27;100.00
59443;BME280;45247;47.466;19.004;2023-01-28T04:02:25;99967.91;;;0.32;100.00
59443;BME280;45247;47.466;19.004;2023-01-28T04:04:55;99977.44;;;0.31;100.00
59443;BME280;45247;47.466;19.004;2023-01-28T04:07:24;99968.88;;;0.26;100.00
59443;BME280;45247;47.466;19.004;2023-01-28T04:09:52;99973.16;;;0.29;100.00
59443;BME280;45247;47.466;19.004;2023-01-28T04:12:20;99975.81;;;0.24;100.00
59443;BME280;45247;47.466;19.004;2023-01-28T04:14:49;99977.56;;;0.23;100.00
59443;BME280;45247;47.466;19.004;2023-01-28T04:17:17;99969.75;;;0.25;100.00
59443;BME280;45247;47.466;19.004;2023-01-28T04:19:45;99975.78;;;0.27;100.00
59443;BME280;45247;47.466;19.004;2023-01-28T04:22:15;99970.66;;;0.21;100.00
59443;BME280;45247;47.466;19.004;2023-01-28T04:24:43;99975.88;;;0.21;100.00
59443;BME280;45247;47.466;19.004;2023-01-28T04:27:11;99979.28;;;0.26;100.00
59443;BME280;45247;47.466;19.004;2023-01-28T04:29:39;99990.50;;;0.25;100.00
59443;BME280;45247;47.466;19.004;2023-01-28T04:32:07;99984.44;;;0.28;100.00
59443;BME280;45247;47.466;19.004;2023-01-28T04:34:37;99986.91;;;0.34;100.00
59443;BME280;45247;47.466;19.004;2023-01-28T04:37:05;99990.34;;;0.34;100.00
59443;BME280;45247;47.466;19.004;2023-01-28T04:39:35;99986.91;;;0.35;100.00
59443;BME280;45247;47.466;19.004;2023-01-28T04:42:03;99992.00;;;0.40;100.00
59443;BME280;45247;47.466;19.004;2023-01-28T04:44:31;99983.34;;;0.41;100.00
59443;BME280;45247;47.466;19.004;2023-01-28T04:47:00;100002.41;;;0.40;100.00
59443;BME280;45247;47.466;19.004;2023-01-28T04:49:28;99994.63;;;0.38;100.00
59443;BME280;45247;47.466;19.004;2023-01-28T04:51:56;99994.63;;;0.38;100.00
59443;BME280;45247;47.466;19.004;2023-01-28T04:54:26;99998.91;;;0.41;100.00
59443;BME280;45247;47.466;19.004;2023-01-28T04:56:55;99992.88;;;0.40;100.00
59443;BME280;45247;47.466;19.004;2023-01-28T04:59:24;99996.34;;;0.39;100.00
59443;BME280;45247;47.466;19.004;2023-01-28T05:01:52;100001.53;;;0.39;100.00
59443;BME280;45247;47.466;19.004;2023-01-28T05:04:20;100011.94;;;0.39;100.00
59443;BME280;45247;47.466;19.004;2023-01-28T05:06:49;100006.75;;;0.39;100.00
59443;BME280;45247;47.466;19.004;2023-01-28T05:09:17;100009.22;;;0.45;100.00
59443;BME280;45247;47.466;19.004;2023-01-28T05:11:45;100009.31;;;0.41;100.00
59443;BME280;45247;47.466;19.004;2023-01-28T05:14:15;100014.59;;;0.35;100.00
59443;BME280;45247;47.466;19.004;2023-01-28T05:16:43;100022.41;;;0.33;100.00
59443;BME280;45247;47.466;19.004;2023-01-28T05:19:11;100012.06;;;0.32;100.00
59443;BME280;45247;47.466;19.004;2023-01-28T05:21:39;100024.09;;;0.34;100.00
59443;BME280;45247;47.466;19.004;2023-01-28T05:24:07;100018.94;;;0.33;100.00
59443;BME280;45247;47.466;19.004;2023-01-28T05:26:36;100017.16;;;0.36;100.00
59443;BME280;45247;47.466;19.004;2023-01-28T05:29:04;100018.06;;;0.34;100.00
59443;BME280;45247;47.466;19.004;2023-01-28T05:31:34;100028.47;;;0.32;100.00
59443;BME280;45247;47.466;19.004;2023-01-28T05:34:02;100025.03;;;0.32;100.00
59443;BME280;45247;47.466;19.004;2023-01-28T05:36:30;100027.69;;;0.27;100.00
59443;BME280;45247;47.466;19.004;2023-01-28T05:38:58;100030.31;;;0.27;100.00
59443;BME280;45247;47.466;19.004;2023-01-28T05:41:26;100031.13;;;0.29;100.00
59443;BME280;45247;47.466;19.004;2023-01-28T05:43:54;100018.22;;;0.24;100.00
59443;BME280;45247;47.466;19.004;2023-01-28T05:46:22;100030.31;;;0.25;100.00
59443;BME280;45247;47.466;19.004;2023-01-28T05:48:52;100029.47;;;0.23;100.00
59443;BME280;45247;47.466;19.004;2023-01-28T05:51:20;100032.94;;;0.24;100.00
59443;BME280;45247;47.466;19.004;2023-01-28T05:53:48;100027.00;;;0.17;100.00
59443;BME280;45247;47.466;19.004;2023-01-28T05:56:16;100042.56;;;0.17;100.00
59443;BME280;45247;47.466;19.004;2023-01-28T05:58:45;100030.53;;;0.13;100.00
59443;BME280;45247;47.466;19.004;2023-01-28T06:01:13;100038.28;;;0.15;100.00
59443;BME280;45247;47.466;19.004;2023-01-28T06:03:41;100039.09;;;0.17;100.00
59443;BME280;45247;47.466;19.004;2023-01-28T06:06:10;100048.53;;;0.21;100.00
59443;BME280;45247;47.466;19.004;2023-01-28T06:08:39;100051.13;;;0.22;100.00
59443;BME280;45247;47.466;19.004;2023-01-28T06:11:07;100053.81;;;0.18;100.00
59443;BME280;45247;47.466;19.004;2023-01-28T06:13:35;100055.50;;;0.19;100.00
59443;BME280;45247;47.466;19.004;2023-01-28T06:16:05;100058.16;;;0.17;100.00
59443;BME280;45247;47.466;19.004;2023-01-28T06:18:33;100059.03;;;0.15;100.00
59443;BME280;45247;47.466;19.004;2023-01-28T06:21:01;100058.19;;;0.14;100.00
59443;BME280;45247;47.466;19.004;2023-01-28T06:23:30;100064.13;;;0.21;100.00
59443;BME280;45247;47.466;19.004;2023-01-28T06:25:59;100054.72;;;0.12;100.00
59443;BME280;45247;47.466;19.004;2023-01-28T06:28:27;100066.16;;;0.01;100.00
59443;BME280;45247;47.466;19.004;2023-01-28T06:30:55;100065.34;;;-0.05;100.00
59443;BME280;45247;47.466;19.004;2023-01-28T06:33:24;100066.25;;;-0.04;100.00
59443;BME280;45247;47.466;19.004;2023-01-28T06:35:52;100070.50;;;-0.02;100.00
59443;BME280;45247;47.466;19.004;2023-01-28T06:38:20;100073.13;;;-0.03;100.00
59443;BME280;45247;47.466;19.004;2023-01-28T06:40:53;100080.88;;;-0.02;100.00
59443;BME280;45247;47.466;19.004;2023-01-28T06:43:22;100086.00;;;0.03;100.00
59443;BME280;45247;47.466;19.004;2023-01-28T06:45:53;100085.16;;;0.03;100.00
59443;BME280;45247;47.466;19.004;2023-01-28T06:48:22;100094.59;;;0.08;100.00
59443;BME280;45247;47.466;19.004;2023-01-28T06:50:51;100091.94;;;0.13;100.00
59443;BME280;45247;47.466;19.004;2023-01-28T06:53:19;100108.25;;;0.22;100.00
59443;BME280;45247;47.466;19.004;2023-01-28T06:55:48;100107.41;;;0.20;100.00
59443;BME280;45247;47.466;19.004;2023-01-28T06:58:18;100099.72;;;0.14;100.00
59443;BME280;45247;47.466;19.004;2023-01-28T07:00:46;100104.13;;;0.08;100.00
59443;BME280;45247;47.466;19.004;2023-01-28T07:03:14;100112.75;;;0.10;100.00
59443;BME280;45247;47.466;19.004;2023-01-28T07:05:42;100120.56;;;0.07;100.00
59443;BME280;45247;47.466;19.004;2023-01-28T07:08:12;100119.63;;;0.14;100.00
59443;BME280;45247;47.466;19.004;2023-01-28T07:10:40;100117.88;;;0.13;100.00
59443;BME280;45247;47.466;19.004;2023-01-28T07:13:09;100116.13;;;0.15;100.00
59443;BME280;45247;47.466;19.004;2023-01-28T07:15:39;100115.25;;;0.17;100.00
59443;BME280;45247;47.466;19.004;2023-01-28T07:18:07;100130.75;;;0.22;100.00
59443;BME280;45247;47.466;19.004;2023-01-28T07:20:35;100123.75;;;0.25;100.00
59443;BME280;45247;47.466;19.004;2023-01-28T07:23:04;100134.16;;;0.25;100.00
59443;BME280;45247;47.466;19.004;2023-01-28T07:25:32;100137.56;;;0.31;100.00
59443;BME280;45247;47.466;19.004;2023-01-28T07:28:00;100140.13;;;0.32;100.00
59443;BME280;45247;47.466;19.004;2023-01-28T07:30:28;100150.50;;;0.32;100.00
59443;BME280;45247;47.466;19.004;2023-01-28T07:32:58;100150.50;;;0.32;100.00
59443;BME280;45247;47.466;19.004;2023-01-28T07:35:27;100141.84;;;0.33;100.00
59443;BME280;45247;47.466;19.004;2023-01-28T07:37:57;100137.53;;;0.32;100.00
59443;BME280;45247;47.466;19.004;2023-01-28T07:40:26;100140.03;;;0.40;100.00
59443;BME280;45247;47.466;19.004;2023-01-28T07:42:54;100139.25;;;0.35;100.00
59443;BME280;45247;47.466;19.004;2023-01-28T07:45:23;100134.84;;;0.38;100.00
59443;BME280;45247;47.466;19.004;2023-01-28T07:47:53;100145.19;;;0.41;100.00
59443;BME280;45247;47.466;19.004;2023-01-28T07:50:23;100142.53;;;0.46;100.00
59443;BME280;45247;47.466;19.004;2023-01-28T07:52:51;100142.31;;;0.60;100.00
59443;BME280;45247;47.466;19.004;2023-01-28T07:55:20;100137.13;;;0.61;100.00
59443;BME280;45247;47.466;19.004;2023-01-28T07:57:50;100146.66;;;0.61;100.00
59443;BME280;45247;47.466;19.004;2023-01-28T08:00:19;100146.56;;;0.64;100.00
59443;BME280;45247;47.466;19.004;2023-01-28T08:02:49;100150.78;;;0.72;100.00
59443;BME280;45247;47.466;19.004;2023-01-28T08:05:18;100151.59;;;0.76;100.00
59443;BME280;45247;47.466;19.004;2023-01-28T08:07:48;100145.44;;;0.83;100.00
59443;BME280;45247;47.466;19.004;2023-01-28T08:10:18;100151.34;;;0.91;100.00
59443;BME280;45247;47.466;19.004;2023-01-28T08:12:53;100160.03;;;0.90;100.00
59443;BME280;45247;47.466;19.004;2023-01-28T08:15:21;100164.44;;;0.87;100.00
59443;BME280;45247;47.466;19.004;2023-01-28T08:17:50;100165.47;;;0.75;100.00
59443;BME280;45247;47.466;19.004;2023-01-28T08:20:20;100152.47;;;0.75;100.00
59443;BME280;45247;47.466;19.004;2023-01-28T08:22:50;100142.19;;;0.69;100.00
59443;BME280;45247;47.466;19.004;2023-01-28T08:25:18;100154.97;;;0.81;100.00
59443;BME280;45247;47.466;19.004;2023-01-28T08:27:47;100163.50;;;0.89;100.00
59443;BME280;45247;47.466;19.004;2023-01-28T08:30:15;100159.13;;;0.93;100.00
59443;BME280;45247;47.466;19.004;2023-01-28T08:32:43;100160.75;;;0.98;100.00
59443;BME280;45247;47.466;19.004;2023-01-28T08:35:12;100169.56;;;0.91;100.00
59443;BME280;45247;47.466;19.004;2023-01-28T08:37:40;100166.91;;;0.93;100.00
59443;BME280;45247;47.466;19.004;2023-01-28T08:40:10;100163.34;;;0.98;100.00
59443;BME280;45247;47.466;19.004;2023-01-28T08:42:45;100177.31;;;0.94;100.00
59443;BME280;45247;47.466;19.004;2023-01-28T08:45:14;100177.22;;;0.99;100.00
59443;BME280;45247;47.466;19.004;2023-01-28T08:47:48;100182.25;;;1.10;100.00
59443;BME280;45247;47.466;19.004;2023-01-28T08:50:18;100179.03;;;0.95;100.00
59443;BME280;45247;47.466;19.004;2023-01-28T08:52:47;100181.63;;;0.95;100.00
59443;BME280;45247;47.466;19.004;2023-01-28T08:55:18;100180.63;;;1.03;100.00
59443;BME280;45247;47.466;19.004;2023-01-28T08:57:46;100183.88;;;1.17;100.00
59443;BME280;45247;47.466;19.004;2023-01-28T09:00:15;100186.63;;;1.06;100.00
59443;BME280;45247;47.466;19.004;2023-01-28T09:02:44;100191.81;;;1.08;100.00
59443;BME280;45247;47.466;19.004;2023-01-28T09:05:12;100191.19;;;0.92;100.00
59443;BME280;45247;47.466;19.004;2023-01-28T09:07:40;100186.75;;;1.00;100.00
59443;BME280;45247;47.466;19.004;2023-01-28T09:10:09;100194.44;;;1.08;100.00
59443;BME280;45247;47.466;19.004;2023-01-28T09:12:39;100195.16;;;1.14;100.00
59443;BME280;45247;47.466;19.004;2023-01-28T09:15:09;100196.50;;;0.86;100.00
59443;BME280;45247;47.466;19.004;2023-01-28T09:17:38;100199.84;;;0.92;100.00
59443;BME280;45247;47.466;19.004;2023-01-28T09:20:08;100194.66;;;0.92;100.00
59443;BME280;45247;47.466;19.004;2023-01-28T09:22:37;100198.72;;;1.09;100.00
59443;BME280;45247;47.466;19.004;2023-01-28T09:25:06;100200.16;;;1.27;100.00
59443;BME280;45247;47.466;19.004;2023-01-28T09:27:34;100209.69;;;1.28;100.00
59443;BME280;45247;47.466;19.004;2023-01-28T09:30:05;100205.41;;;1.23;100.00
59443;BME280;45247;47.466;19.004;2023-01-28T09:32:33;100210.56;;;1.27;100.00
59443;BME280;45247;47.466;19.004;2023-01-28T09:35:01;100204.66;;;1.17;100.00
59443;BME280;45247;47.466;19.004;2023-01-28T09:37:30;100213.44;;;1.10;100.00
59443;BME280;45247;47.466;19.004;2023-01-28T09:39:58;100210.09;;;1.03;100.00
59443;BME280;45247;47.466;19.004;2023-01-28T09:42:50;100210.22;;;0.95;100.00
59443;BME280;45247;47.466;19.004;2023-01-28T09:45:25;100210.03;;;1.08;100.00
59443;BME280;45247;47.466;19.004;2023-01-28T09:47:56;100203.75;;;1.19;100.00
59443;BME280;45247;47.466;19.004;2023-01-28T09:50:30;100211.56;;;1.18;100.00
59443;BME280;45247;47.466;19.004;2023-01-28T09:53:02;100195.84;;;1.24;100.00
59443;BME280;45247;47.466;19.004;2023-01-28T09:55:33;100202.81;;;1.23;100.00
59443;BME280;45247;47.466;19.004;2023-01-28T09:58:05;100206.22;;;1.27;100.00
59443;BME280;45247;47.466;19.004;2023-01-28T10:00:41;100191.25;;;1.41;100.00
59443;BME280;45247;47.466;19.004;2023-01-28T10:03:29;100203.88;;;1.63;100.00
59443;BME280;45247;47.466;19.004;2023-01-28T10:06:08;100184.69;;;1.67;100.00
59443;BME280;45247;47.466;19.004;2023-01-28T10:09:05;100195.06;;;1.70;100.00
59443;BME280;45247;47.466;19.004;2023-01-28T10:11:45;100193.63;;;1.54;100.00
59443;BME280;45247;47.466;19.004;2023-01-28T10:14:20;100192.59;;;1.64;100.00
59443;BME280;45247;47.466;19.004;2023-01-28T10:17:01;100192.19;;;1.84;100.00
59443;BME280;45247;47.466;19.004;2023-01-28T10:19:37;100193.66;;;1.97;100.00
59443;BME280;45247;47.466;19.004;2023-01-28T10:22:14;100189.50;;;2.32;100.00
59443;BME280;45247;47.466;19.004;2023-01-28T10:24:46;100198.50;;;2.56;100.00
59443;BME280;45247;47.466;19.004;2023-01-28T10:27:16;100199.47;;;2.51;100.00
59443;BME280;45247;47.466;19.004;2023-01-28T10:29:47;100189.78;;;2.58;100.00
59443;BME280;45247;47.466;19.004;2023-01-28T10:32:22;100198.09;;;2.74;100.00
59443;BME280;45247;47.466;19.004;2023-01-28T10:34:55;100186.25;;;2.61;100.00
59443;BME280;45247;47.466;19.004;2023-01-28T10:37:25;100192.06;;;2.72;100.00
59443;BME280;45247;47.466;19.004;2023-01-28T10:39:57;100198.56;;;2.53;100.00
59443;BME280;45247;47.466;19.004;2023-01-28T10:42:27;100195.22;;;2.47;100.00
59443;BME280;45247;47.466;19.004;2023-01-28T10:44:59;100196.06;;;2.48;100.00
59443;BME280;45247;47.466;19.004;2023-01-28T10:47:32;100191.91;;;2.39;100.00
59443;BME280;45247;47.466;19.004;2023-01-28T10:50:05;100196.38;;;2.36;100.00
59443;BME280;45247;47.466;19.004;2023-01-28T10:52:52;100185.78;;;2.42;100.00
59443;BME280;45247;47.466;19.004;2023-01-28T10:55:21;100193.56;;;2.43;100.00
59443;BME280;45247;47.466;19.004;2023-01-28T10:57:49;100196.41;;;2.33;100.00
59443;BME280;45247;47.466;19.004;2023-01-28T11:00:22;100190.34;;;2.32;100.00
59443;BME280;45247;47.466;19.004;2023-01-28T11:02:53;100194.47;;;2.42;100.00
59443;BME280;45247;47.466;19.004;2023-01-28T11:05:23;100197.97;;;2.41;100.00
59443;BME280;45247;47.466;19.004;2023-01-28T11:08:04;100188.81;;;2.22;100.00
59443;BME280;45247;47.466;19.004;2023-01-28T11:10:35;100185.19;;;2.29;100.00
59443;BME280;45247;47.466;19.004;2023-01-28T11:13:05;100181.69;;;2.32;100.00
59443;BME280;45247;47.466;19.004;2023-01-28T11:15:33;100191.66;;;2.51;100.00
59443;BME280;45247;47.466;19.004;2023-01-28T11:18:24;100194.03;;;2.62;100.00
59443;BME280;45247;47.466;19.004;2023-01-28T11:20:55;100189.81;;;2.57;100.00
59443;BME280;45247;47.466;19.004;2023-01-28T11:23:26;100182.19;;;2.47;100.00
59443;BME280;45247;47.466;19.004;2023-01-28T11:25:59;100183.03;;;2.49;100.00
59443;BME280;45247;47.466;19.004;2023-01-28T11:28:29;100180.13;;;2.63;100.00
59443;BME280;45247;47.466;19.004;2023-01-28T11:31:01;100177.84;;;2.48;100.00
59443;BME280;45247;47.466;19.004;2023-01-28T11:33:36;100177.56;;;2.62;100.00
59443;BME280;45247;47.466;19.004;2023-01-28T11:36:10;100181.31;;;2.87;100.00
59443;BME280;45247;47.466;19.004;2023-01-28T11:38:51;100186.06;;;2.70;100.00
59443;BME280;45247;47.466;19.004;2023-01-28T11:41:26;100176.00;;;2.53;100.00
59443;BME280;45247;47.466;19.004;2023-01-28T11:43:55;100187.75;;;2.71;100.00
59443;BME280;45247;47.466;19.004;2023-01-28T11:46:44;100179.31;;;2.60;100.00
59443;BME280;45247;47.466;19.004;2023-01-28T11:49:22;100176.03;;;2.51;100.00
59443;BME280;45247;47.466;19.004;2023-01-28T11:51:58;100178.97;;;2.75;100.00
59443;BME280;45247;47.466;19.004;2023-01-28T11:54:43;100172.97;;;2.71;100.00
59443;BME280;45247;47.466;19.004;2023-01-28T11:57:22;100181.59;;;2.75;100.00
59443;BME280;45247;47.466;19.004;2023-01-28T11:59:58;100173.03;;;2.70;100.00
59443;BME280;45247;47.466;19.004;2023-01-28T12:02:42;100173.78;;;2.75;100.00
59443;BME280;45247;47.466;19.004;2023-01-28T12:05:29;100172.31;;;2.99;100.00
59443;BME280;45247;47.466;19.004;2023-01-28T12:08:08;100167.38;;;2.88;100.00
59443;BME280;45247;47.466;19.004;2023-01-28T12:10:47;100168.28;;;2.87;100.00
59443;BME280;45247;47.466;19.004;2023-01-28T12:13:34;100164.88;;;2.82;100.00
59443;BME280;45247;47.466;19.004;2023-01-28T12:16:30;100164.19;;;2.75;100.00
59443;BME280;45247;47.466;19.004;2023-01-28T12:19:42;100160.69;;;2.76;100.00
59443;BME280;45247;47.466;19.004;2023-01-28T12:22:41;100162.16;;;2.88;100.00
59443;BME280;45247;47.466;19.004;2023-01-28T12:25:28;100149.91;;;2.92;100.00
59443;BME280;45247;47.466;19.004;2023-01-28T12:28:16;100128.19;;;2.91;100.00
59443;BME280;45247;47.466;19.004;2023-01-28T12:30:59;100164.53;;;2.97;100.00
59443;BME280;45247;47.466;19.004;2023-01-28T12:33:44;100155.97;;;2.92;100.00
59443;BME280;45247;47.466;19.004;2023-01-28T12:36:24;100156.53;;;3.05;100.00
59443;BME280;45247;47.466;19.004;2023-01-28T12:39:04;100170.13;;;3.18;100.00
59443;BME280;45247;47.466;19.004;2023-01-28T12:41:40;100158.97;;;3.13;100.00
59443;BME280;45247;47.466;19.004;2023-01-28T12:44:12;100151.03;;;3.16;100.00
59443;BME280;45247;47.466;19.004;2023-01-28T12:46:47;100165.72;;;3.20;100.00
59443;BME280;45247;47.466;19.004;2023-01-28T12:49:41;100129.16;;;2.87;100.00
59443;BME280;45247;47.466;19.004;2023-01-28T12:52:21;100163.38;;;3.09;100.00
59443;BME280;45247;47.466;19.004;2023-01-28T12:55:03;100130.03;;;2.88;100.00
59443;BME280;45247;47.466;19.004;2023-01-28T12:57:45;100167.66;;;3.12;100.00
59443;BME280;45247;47.466;19.004;2023-01-28T13:00:24;100170.81;;;3.24;100.00
59443;BME280;45247;47.466;19.004;2023-01-28T13:02:59;100170.78;;;3.26;100.00
59443;BME280;45247;47.466;19.004;2023-01-28T13:05:37;100180.50;;;3.19;100.00
